KPUC/PUC METAR and TAF weather

Enter ICAO airport designator
Station Type Date Time Source
KPUC METAR 2019/08/22 03:53 UTC NOAA

KPUC 220353Z AUTO 29005KT 10SM CLR 23/M05 A3004 RMK AO2 SLP068 T02331050


Station Type Date Time Source
KPUC Decoded METAR 2019/08/22 03:53 UTC NOAA

Station name not available
Aug 21, 2019 - 11:53 PM EDT / 2019.08.22 0353 UTC
Wind: from the WNW (290 degrees) at 6 MPH (5 KT):0
Visibility: 10 mile(s):0
Sky conditions: clear
Temperature: 73.9 F (23.3 C)
Dew Point: 23.0 F (-5.0 C)
Relative Humidity: 14%
Pressure (altimeter): 30.04 in. Hg (1017 hPa)
ob: KPUC 220353Z AUTO 29005KT 10SM CLR 23/M05 A3004 RMK AO2 SLP068 T02331050
cycle: 4

Station Type Date Time Source
KPUC TAF UTC NOAA

Error!

Example: see airport list